Impacts TAF Board
For situational awareness. Not to be used for flight planning purposes.
IDs:

KBOS - Boston/Logan Intl, MA, US

Issued at 0528 UTC 22 Oct 2021
Updated at 0533 UTC 22 Oct 2021
Potential Impact None Slight Moderate High
Time0454Z 22/06Z 22/07Z 22/08Z 22/09Z 22/10Z 22/11Z 22/12Z 22/13Z 22/14Z 22/15Z 22/16Z 22/17Z 22/18Z>>
Type OBS PRVL PRVL PRVL PRVL PRVL PRVL PRVL PRVL PRVL PRVL PRVL PRVL PRVL
VIS 10 >6 >6 >6 >6 >6 >6 >6 >6 >6 >6 >6 >6 >6
CIG -- -- -- -- -- -- 80 80 -- -- -- -- -- --
Cover SCT SCT SCT SCT SCT SCT BKN BKN SCT SCT FEW FEW FEW FEW
FltCat VFR VFR VFR VFR VFR VFR VFR VFR VFR VFR VFR VFR VFR VFR
WX -- -- -- -- -- -- VCSH VCSH -- -- -- -- -- --
WDir 200 200 200 200 200 200 210 210 230 230 250 250 250 250
WSpd 8 9 9 9 9 9 9 9 9 9 10 10 10 10
WGst -- -- -- -- -- -- -- -- -- -- -- -- -- --
Raw TAF
KBOS 220528Z 2206/2312 20009KT P6SM SCT100
  FM221100 21009KT P6SM VCSH BKN080
  FM221300 23009KT P6SM SCT150
  FM221500 25010KT P6SM FEW200
  FM222100 26008KT P6SM SCT150
  FM230200 30006KT P6SM BKN150


Raw METAR
KBOS 220454Z 20008KT 10SM FEW180 SCT250 16/14 A2982 RMK AO2 SLP096 T01610139 402390144
KBOS 220354Z 22009KT 10SM FEW180 BKN220 17/14 A2984 RMK AO2 SLP103 T01670139
KBOS 220254Z 21012KT 10SM SCT180 BKN220 17/14 A2985 RMK AO2 SLP109 T01720144 56010

METAR Board
Radar Display
Forecast Discussion
For situational awareness. Not to be used for flight planning purposes.